sensor_id;sensor_type;location;lat;lon;timestamp;pressure;altitude;pressure_sealevel;temperature;humidity
77587;BME280;66744;49.716;17.158;2024-01-06T00:02:17;98057.44;;;4.31;80.36
77587;BME280;66744;49.716;17.158;2024-01-06T00:05:18;98051.59;;;4.33;79.75
77587;BME280;66744;49.716;17.158;2024-01-06T00:08:20;98040.72;;;4.33;80.60
77587;BME280;66744;49.716;17.158;2024-01-06T00:11:26;98035.28;;;4.33;80.26
77587;BME280;66744;49.716;17.158;2024-01-06T00:14:28;98039.47;;;4.37;79.99
77587;BME280;66744;49.716;17.158;2024-01-06T00:17:31;98031.75;;;4.36;80.65
77587;BME280;66744;49.716;17.158;2024-01-06T00:20:34;98035.97;;;4.37;80.27
77587;BME280;66744;49.716;17.158;2024-01-06T00:23:35;98036.41;;;4.35;80.64
77587;BME280;66744;49.716;17.158;2024-01-06T00:26:38;98037.09;;;4.39;80.16
77587;BME280;66744;49.716;17.158;2024-01-06T00:29:44;98042.53;;;4.39;79.59
77587;BME280;66744;49.716;17.158;2024-01-06T00:32:46;98052.16;;;4.44;80.41
77587;BME280;66744;49.716;17.158;2024-01-06T00:35:48;98053.69;;;4.45;80.84
77587;BME280;66744;49.716;17.158;2024-01-06T00:38:53;98048.25;;;4.45;80.81
77587;BME280;66744;49.716;17.158;2024-01-06T00:41:55;98052.03;;;4.51;79.62
77587;BME280;66744;49.716;17.158;2024-01-06T00:44:56;98053.16;;;4.54;80.68
77587;BME280;66744;49.716;17.158;2024-01-06T00:48:00;98052.31;;;4.57;80.08
77587;BME280;66744;49.716;17.158;2024-01-06T00:51:04;98059.63;;;4.60;79.66
77587;BME280;66744;49.716;17.158;2024-01-06T00:54:07;98058.78;;;4.63;79.90
77587;BME280;66744;49.716;17.158;2024-01-06T00:57:08;98062.28;;;4.63;79.35
77587;BME280;66744;49.716;17.158;2024-01-06T01:00:12;98062.75;;;4.58;80.08
77587;BME280;66744;49.716;17.158;2024-01-06T01:03:16;98063.88;;;4.61;80.48
77587;BME280;66744;49.716;17.158;2024-01-06T01:06:21;98065.06;;;4.60;79.95
77587;BME280;66744;49.716;17.158;2024-01-06T01:09:22;98047.56;;;4.61;79.12
77587;BME280;66744;49.716;17.158;2024-01-06T01:12:26;98061.25;;;4.57;79.54
77587;BME280;66744;49.716;17.158;2024-01-06T01:15:32;98063.13;;;4.60;80.70
77587;BME280;66744;49.716;17.158;2024-01-06T01:18:34;98056.47;;;4.61;80.10
77587;BME280;66744;49.716;17.158;2024-01-06T01:21:37;98064.25;;;4.63;80.54
77587;BME280;66744;49.716;17.158;2024-01-06T01:24:43;98056.16;;;4.59;79.88
77587;BME280;66744;49.716;17.158;2024-01-06T01:27:46;98063.03;;;4.64;79.81
77587;BME280;66744;49.716;17.158;2024-01-06T01:30:51;98067.28;;;4.65;79.09
77587;BME280;66744;49.716;17.158;2024-01-06T01:33:54;98062.19;;;4.67;79.39
77587;BME280;66744;49.716;17.158;2024-01-06T01:36:59;98059.56;;;4.63;79.02
77587;BME280;66744;49.716;17.158;2024-01-06T01:40:00;98053.34;;;4.63;79.96
77587;BME280;66744;49.716;17.158;2024-01-06T01:43:05;98062.75;;;4.58;80.91
77587;BME280;66744;49.716;17.158;2024-01-06T01:46:09;98058.94;;;4.56;80.93
77587;BME280;66744;49.716;17.158;2024-01-06T01:49:11;98058.53;;;4.57;80.13
77587;BME280;66744;49.716;17.158;2024-01-06T01:52:15;98050.75;;;4.56;80.38
77587;BME280;66744;49.716;17.158;2024-01-06T01:55:17;98049.66;;;4.53;80.54
77587;BME280;66744;49.716;17.158;2024-01-06T01:58:19;98047.72;;;4.54;80.61
77587;BME280;66744;49.716;17.158;2024-01-06T02:05:13;98043.94;;;4.47;81.84
77587;BME280;66744;49.716;17.158;2024-01-06T02:08:18;98053.22;;;4.50;80.63
77587;BME280;66744;49.716;17.158;2024-01-06T02:11:20;98047.78;;;4.50;80.36
77587;BME280;66744;49.716;17.158;2024-01-06T02:14:25;98053.16;;;4.54;79.87
77587;BME280;66744;49.716;17.158;2024-01-06T02:17:29;98041.44;;;4.57;81.15
77587;BME280;66744;49.716;17.158;2024-01-06T02:20:41;98043.66;;;4.62;80.17
77587;BME280;66744;49.716;17.158;2024-01-06T02:23:44;98027.78;;;4.60;79.65
77587;BME280;66744;49.716;17.158;2024-01-06T02:26:46;98032.22;;;4.51;81.09
77587;BME280;66744;49.716;17.158;2024-01-06T02:29:55;98039.47;;;4.57;80.03
77587;BME280;66744;49.716;17.158;2024-01-06T02:32:57;98034.72;;;4.61;79.77
77587;BME280;66744;49.716;17.158;2024-01-06T02:35:59;98035.00;;;4.67;80.53
77587;BME280;66744;49.716;17.158;2024-01-06T02:39:01;98033.81;;;4.68;80.46
77587;BME280;66744;49.716;17.158;2024-01-06T02:42:07;98021.75;;;4.69;80.40
77587;BME280;66744;49.716;17.158;2024-01-06T02:45:10;98024.03;;;4.70;79.88
77587;BME280;66744;49.716;17.158;2024-01-06T02:48:12;98023.28;;;4.70;80.43
77587;BME280;66744;49.716;17.158;2024-01-06T02:51:15;98035.38;;;4.69;80.53
77587;BME280;66744;49.716;17.158;2024-01-06T02:54:17;98038.09;;;4.69;80.42
77587;BME280;66744;49.716;17.158;2024-01-06T02:57:20;98034.53;;;4.72;79.75
77587;BME280;66744;49.716;17.158;2024-01-06T03:00:25;98036.03;;;4.73;80.21
77587;BME280;66744;49.716;17.158;2024-01-06T03:03:28;98035.25;;;4.72;79.66
77587;BME280;66744;49.716;17.158;2024-01-06T03:06:32;98039.53;;;4.73;79.62
77587;BME280;66744;49.716;17.158;2024-01-06T03:09:34;98040.31;;;4.74;80.50
77587;BME280;66744;49.716;17.158;2024-01-06T03:12:35;98036.03;;;4.73;80.85
77587;BME280;66744;49.716;17.158;2024-01-06T03:15:38;98036.88;;;4.70;80.19
77587;BME280;66744;49.716;17.158;2024-01-06T03:18:40;98025.22;;;4.69;80.67
77587;BME280;66744;49.716;17.158;2024-01-06T03:21:42;98027.19;;;4.69;79.91
77587;BME280;66744;49.716;17.158;2024-01-06T03:24:44;98026.50;;;4.65;80.48
77587;BME280;66744;49.716;17.158;2024-01-06T03:27:46;98032.28;;;4.67;81.56
77587;BME280;66744;49.716;17.158;2024-01-06T03:30:48;98031.44;;;4.70;80.67
77587;BME280;66744;49.716;17.158;2024-01-06T03:33:51;98036.81;;;4.73;80.10
77587;BME280;66744;49.716;17.158;2024-01-06T03:36:55;98026.25;;;4.75;79.67
77587;BME280;66744;49.716;17.158;2024-01-06T03:39:57;98022.03;;;4.74;80.55
77587;BME280;66744;49.716;17.158;2024-01-06T03:42:59;98018.03;;;4.79;80.56
77587;BME280;66744;49.716;17.158;2024-01-06T03:46:05;98022.69;;;4.78;80.17
77587;BME280;66744;49.716;17.158;2024-01-06T03:49:07;98018.88;;;4.76;79.72
77587;BME280;66744;49.716;17.158;2024-01-06T03:52:12;98022.69;;;4.78;79.18
77587;BME280;66744;49.716;17.158;2024-01-06T03:55:15;98022.69;;;4.78;79.32
77587;BME280;66744;49.716;17.158;2024-01-06T03:58:18;98019.91;;;4.82;80.33
77587;BME280;66744;49.716;17.158;2024-01-06T04:01:20;98014.91;;;4.80;80.02
77587;BME280;66744;49.716;17.158;2024-01-06T04:04:22;98021.13;;;4.81;80.59
77587;BME280;66744;49.716;17.158;2024-01-06T04:07:24;98017.38;;;4.75;79.71
77587;BME280;66744;49.716;17.158;2024-01-06T04:10:30;98014.34;;;4.69;80.77
77587;BME280;66744;49.716;17.158;2024-01-06T04:13:31;98018.19;;;4.72;80.39
77587;BME280;66744;49.716;17.158;2024-01-06T04:16:34;98013.88;;;4.74;80.37
77587;BME280;66744;49.716;17.158;2024-01-06T04:19:36;98005.34;;;4.72;80.80
77587;BME280;66744;49.716;17.158;2024-01-06T04:22:38;98015.47;;;4.72;80.52
77587;BME280;66744;49.716;17.158;2024-01-06T04:25:40;98003.41;;;4.73;80.47
77587;BME280;66744;49.716;17.158;2024-01-06T04:28:42;98008.00;;;4.76;80.68
77587;BME280;66744;49.716;17.158;2024-01-06T04:31:44;98007.59;;;4.77;80.69
77587;BME280;66744;49.716;17.158;2024-01-06T04:34:48;98004.88;;;4.77;80.39
77587;BME280;66744;49.716;17.158;2024-01-06T04:37:51;98006.03;;;4.76;80.19
77587;BME280;66744;49.716;17.158;2024-01-06T04:40:58;98006.88;;;4.73;80.54
77587;BME280;66744;49.716;17.158;2024-01-06T04:43:59;98010.72;;;4.76;80.29
77587;BME280;66744;49.716;17.158;2024-01-06T04:47:01;98002.22;;;4.74;80.01
77587;BME280;66744;49.716;17.158;2024-01-06T04:50:05;98006.81;;;4.77;80.66
77587;BME280;66744;49.716;17.158;2024-01-06T04:53:15;97997.38;;;4.81;80.90
77587;BME280;66744;49.716;17.158;2024-01-06T04:56:23;97993.53;;;4.79;80.69
77587;BME280;66744;49.716;17.158;2024-01-06T04:59:25;97997.31;;;4.85;79.76
77587;BME280;66744;49.716;17.158;2024-01-06T05:02:28;97995.34;;;4.85;80.01
77587;BME280;66744;49.716;17.158;2024-01-06T05:05:31;98000.03;;;4.85;79.83
77587;BME280;66744;49.716;17.158;2024-01-06T05:08:34;98002.69;;;4.88;79.93
77587;BME280;66744;49.716;17.158;2024-01-06T05:11:40;98003.78;;;4.91;79.66
77587;BME280;66744;49.716;17.158;2024-01-06T05:14:44;98004.22;;;4.89;79.28
77587;BME280;66744;49.716;17.158;2024-01-06T05:17:45;98007.78;;;4.86;80.66
77587;BME280;66744;49.716;17.158;2024-01-06T05:20:47;98001.31;;;4.80;80.67
77587;BME280;66744;49.716;17.158;2024-01-06T05:23:48;98010.25;;;4.81;81.08
77587;BME280;66744;49.716;17.158;2024-01-06T05:26:51;98007.94;;;4.79;79.94
77587;BME280;66744;49.716;17.158;2024-01-06T05:29:53;98014.13;;;4.80;80.76
77587;BME280;66744;49.716;17.158;2024-01-06T05:32:54;98020.28;;;4.84;80.19
77587;BME280;66744;49.716;17.158;2024-01-06T05:35:59;98027.16;;;4.88;80.27
77587;BME280;66744;49.716;17.158;2024-01-06T05:39:01;98026.75;;;4.90;80.37
77587;BME280;66744;49.716;17.158;2024-01-06T05:42:06;98023.66;;;4.88;79.92
77587;BME280;66744;49.716;17.158;2024-01-06T05:45:10;98026.31;;;4.91;80.55
77587;BME280;66744;49.716;17.158;2024-01-06T05:48:13;98036.78;;;4.93;79.22
77587;BME280;66744;49.716;17.158;2024-01-06T05:51:15;98037.13;;;4.95;79.19
77587;BME280;66744;49.716;17.158;2024-01-06T05:54:17;98043.69;;;4.97;80.85
77587;BME280;66744;49.716;17.158;2024-01-06T05:57:18;98034.75;;;4.97;78.91
77587;BME280;66744;49.716;17.158;2024-01-06T06:00:22;98037.41;;;5.00;79.79
77587;BME280;66744;49.716;17.158;2024-01-06T06:03:26;98058.41;;;5.00;79.79
77587;BME280;66744;49.716;17.158;2024-01-06T06:06:27;98054.50;;;5.01;79.83
77587;BME280;66744;49.716;17.158;2024-01-06T06:09:29;98054.06;;;5.02;80.38
77587;BME280;66744;49.716;17.158;2024-01-06T06:12:32;98051.78;;;5.01;80.50
77587;BME280;66744;49.716;17.158;2024-01-06T06:15:34;98049.13;;;4.97;79.31
77587;BME280;66744;49.716;17.158;2024-01-06T06:18:36;98053.09;;;4.93;79.98
77587;BME280;66744;49.716;17.158;2024-01-06T06:21:38;98049.53;;;4.96;80.93
77587;BME280;66744;49.716;17.158;2024-01-06T06:24:40;98058.66;;;4.89;81.97
77587;BME280;66744;49.716;17.158;2024-01-06T06:27:42;98067.00;;;4.98;81.57
77587;BME280;66744;49.716;17.158;2024-01-06T06:30:45;98066.63;;;4.96;81.54
77587;BME280;66744;49.716;17.158;2024-01-06T06:33:46;98061.63;;;4.95;81.12
77587;BME280;66744;49.716;17.158;2024-01-06T06:36:50;98067.84;;;4.95;81.46
77587;BME280;66744;49.716;17.158;2024-01-06T06:39:54;98068.59;;;4.96;80.45
77587;BME280;66744;49.716;17.158;2024-01-06T06:42:56;98063.16;;;4.96;81.01
77587;BME280;66744;49.716;17.158;2024-01-06T06:45:58;98071.25;;;4.99;80.95
77587;BME280;66744;49.716;17.158;2024-01-06T06:49:00;98065.72;;;5.03;80.75
77587;BME280;66744;49.716;17.158;2024-01-06T06:52:01;98061.47;;;5.02;81.18
77587;BME280;66744;49.716;17.158;2024-01-06T06:55:06;98072.34;;;5.02;79.82
77587;BME280;66744;49.716;17.158;2024-01-06T06:58:10;98073.38;;;5.08;80.35
77587;BME280;66744;49.716;17.158;2024-01-06T07:01:14;98069.94;;;5.08;81.01
77587;BME280;66744;49.716;17.158;2024-01-06T07:04:17;98069.56;;;5.05;80.77
77587;BME280;66744;49.716;17.158;2024-01-06T07:07:19;98088.78;;;4.98;81.64
77587;BME280;66744;49.716;17.158;2024-01-06T07:10:24;98083.94;;;5.06;80.42
77587;BME280;66744;49.716;17.158;2024-01-06T07:13:26;98085.06;;;5.09;80.40
77587;BME280;66744;49.716;17.158;2024-01-06T07:16:28;98081.16;;;5.10;80.79
77587;BME280;66744;49.716;17.158;2024-01-06T07:19:32;98090.09;;;5.10;80.44
77587;BME280;66744;49.716;17.158;2024-01-06T07:22:34;98088.47;;;5.13;80.23
77587;BME280;66744;49.716;17.158;2024-01-06T07:25:40;98094.69;;;5.13;81.38
77587;BME280;66744;49.716;17.158;2024-01-06T07:28:41;98096.63;;;5.13;80.91
77587;BME280;66744;49.716;17.158;2024-01-06T07:31:43;98091.53;;;5.15;80.71
77587;BME280;66744;49.716;17.158;2024-01-06T07:34:46;98102.00;;;5.16;79.82
77587;BME280;66744;49.716;17.158;2024-01-06T07:37:49;98107.03;;;5.18;80.79
77587;BME280;66744;49.716;17.158;2024-01-06T07:40:51;98111.63;;;5.21;79.93
77587;BME280;66744;49.716;17.158;2024-01-06T07:43:52;98116.75;;;5.19;79.89
77587;BME280;66744;49.716;17.158;2024-01-06T07:46:59;98108.63;;;5.15;80.91
77587;BME280;66744;49.716;17.158;2024-01-06T07:50:03;98121.34;;;5.22;80.57
77587;BME280;66744;49.716;17.158;2024-01-06T07:53:08;98122.38;;;5.28;80.56
77587;BME280;66744;49.716;17.158;2024-01-06T07:56:09;98120.00;;;5.30;81.56
77587;BME280;66744;49.716;17.158;2024-01-06T07:59:11;98122.66;;;5.33;79.71
77587;BME280;66744;49.716;17.158;2024-01-06T08:02:12;98135.41;;;5.36;80.69
77587;BME280;66744;49.716;17.158;2024-01-06T08:05:14;98137.38;;;5.36;80.13
77587;BME280;66744;49.716;17.158;2024-01-06T08:08:20;98136.97;;;5.37;81.44
77587;BME280;66744;49.716;17.158;2024-01-06T08:11:22;98135.75;;;5.38;80.78
77587;BME280;66744;49.716;17.158;2024-01-06T08:14:26;98145.47;;;5.39;81.72
77587;BME280;66744;49.716;17.158;2024-01-06T08:17:30;98144.63;;;5.42;80.96
77587;BME280;66744;49.716;17.158;2024-01-06T08:20:36;98148.88;;;5.43;80.40
77587;BME280;66744;49.716;17.158;2024-01-06T08:23:40;98154.25;;;5.47;81.31
77587;BME280;66744;49.716;17.158;2024-01-06T08:26:51;98163.53;;;5.49;81.21
77587;BME280;66744;49.716;17.158;2024-01-06T08:29:53;98168.22;;;5.49;80.86
77587;BME280;66744;49.716;17.158;2024-01-06T08:32:55;98166.63;;;5.51;81.35
77587;BME280;66744;49.716;17.158;2024-01-06T08:35:58;98176.72;;;5.51;81.25
77587;BME280;66744;49.716;17.158;2024-01-06T08:39:03;98182.53;;;5.53;81.89
77587;BME280;66744;49.716;17.158;2024-01-06T08:42:05;98179.78;;;5.53;81.84
77587;BME280;66744;49.716;17.158;2024-01-06T08:45:07;98179.38;;;5.54;81.96
77587;BME280;66744;49.716;17.158;2024-01-06T08:48:09;98182.03;;;5.58;80.95
77587;BME280;66744;49.716;17.158;2024-01-06T08:51:15;98181.53;;;5.63;80.72
77587;BME280;66744;49.716;17.158;2024-01-06T08:54:20;98184.25;;;5.63;79.96
77587;BME280;66744;49.716;17.158;2024-01-06T08:57:24;98192.69;;;5.69;80.51
77587;BME280;66744;49.716;17.158;2024-01-06T09:00:27;98190.75;;;5.69;80.93
77587;BME280;66744;49.716;17.158;2024-01-06T09:03:29;98189.97;;;5.69;81.05
77587;BME280;66744;49.716;17.158;2024-01-06T09:06:34;98198.47;;;5.71;81.99
77587;BME280;66744;49.716;17.158;2024-01-06T09:09:36;98200.44;;;5.70;82.24
77587;BME280;66744;49.716;17.158;2024-01-06T09:12:38;98200.81;;;5.72;80.43
77587;BME280;66744;49.716;17.158;2024-01-06T09:15:40;98206.19;;;5.76;81.44
77587;BME280;66744;49.716;17.158;2024-01-06T09:18:45;98200.63;;;5.79;82.08
77587;BME280;66744;49.716;17.158;2024-01-06T09:21:46;98204.91;;;5.80;81.38
77587;BME280;66744;49.716;17.158;2024-01-06T09:24:48;98197.56;;;5.77;80.65
77587;BME280;66744;49.716;17.158;2024-01-06T09:27:52;98193.59;;;5.82;81.48
77587;BME280;66744;49.716;17.158;2024-01-06T09:30:54;98205.19;;;5.86;80.79
77587;BME280;66744;49.716;17.158;2024-01-06T09:34:03;98198.88;;;5.89;80.80
77587;BME280;66744;49.716;17.158;2024-01-06T09:37:05;98203.94;;;5.90;81.61
77587;BME280;66744;49.716;17.158;2024-01-06T09:40:11;98199.25;;;5.91;81.36
77587;BME280;66744;49.716;17.158;2024-01-06T09:43:15;98198.81;;;5.92;81.21
77587;BME280;66744;49.716;17.158;2024-01-06T09:46:24;98187.06;;;5.95;81.05
77587;BME280;66744;49.716;17.158;2024-01-06T09:49:34;98191.66;;;5.98;81.23
77587;BME280;66744;49.716;17.158;2024-01-06T09:52:40;98182.97;;;6.03;81.11
77587;BME280;66744;49.716;17.158;2024-01-06T09:55:45;98184.84;;;6.06;81.01
77587;BME280;66744;49.716;17.158;2024-01-06T09:58:48;98185.28;;;6.05;81.40
77587;BME280;66744;49.716;17.158;2024-01-06T10:01:50;98184.44;;;6.08;81.23
77587;BME280;66744;49.716;17.158;2024-01-06T10:04:57;98184.38;;;6.11;81.89
77587;BME280;66744;49.716;17.158;2024-01-06T10:08:02;98178.81;;;6.15;81.28
77587;BME280;66744;49.716;17.158;2024-01-06T10:11:07;98184.88;;;6.23;82.47
77587;BME280;66744;49.716;17.158;2024-01-06T10:14:12;98180.19;;;6.23;81.85
77587;BME280;66744;49.716;17.158;2024-01-06T10:17:16;98179.22;;;6.30;82.59
77587;BME280;66744;49.716;17.158;2024-01-06T10:20:28;98180.78;;;6.31;82.41
77587;BME280;66744;49.716;17.158;2024-01-06T10:23:29;98184.97;;;6.35;80.99
77587;BME280;66744;49.716;17.158;2024-01-06T10:26:31;98185.28;;;6.37;81.04
77587;BME280;66744;49.716;17.158;2024-01-06T10:29:33;98181.28;;;6.42;82.00
77587;BME280;66744;49.716;17.158;2024-01-06T10:32:36;98171.13;;;6.42;82.23
77587;BME280;66744;49.716;17.158;2024-01-06T10:35:38;98176.81;;;6.48;82.15
77587;BME280;66744;49.716;17.158;2024-01-06T10:38:42;98172.47;;;6.50;81.39
77587;BME280;66744;49.716;17.158;2024-01-06T10:41:48;98168.47;;;6.55;81.21
77587;BME280;66744;49.716;17.158;2024-01-06T10:44:50;98162.06;;;6.61;81.09
77587;BME280;66744;49.716;17.158;2024-01-06T10:47:53;98168.53;;;6.67;81.61
77587;BME280;66744;49.716;17.158;2024-01-06T10:50:56;98159.81;;;6.72;81.80
77587;BME280;66744;49.716;17.158;2024-01-06T10:54:02;98158.88;;;6.79;81.38
77587;BME280;66744;49.716;17.158;2024-01-06T10:57:05;98155.28;;;6.82;81.73
77587;BME280;66744;49.716;17.158;2024-01-06T11:00:11;98147.75;;;6.86;82.19
77587;BME280;66744;49.716;17.158;2024-01-06T11:03:15;98147.34;;;6.88;81.76
77587;BME280;66744;49.716;17.158;2024-01-06T11:06:26;98149.19;;;6.91;82.06
77587;BME280;66744;49.716;17.158;2024-01-06T11:09:33;98145.88;;;6.83;81.43
77587;BME280;66744;49.716;17.158;2024-01-06T11:12:37;98145.75;;;6.74;82.23
77587;BME280;66744;49.716;17.158;2024-01-06T11:15:41;98148.47;;;6.74;82.84
77587;BME280;66744;49.716;17.158;2024-01-06T11:18:46;98147.19;;;6.79;82.69
77587;BME280;66744;49.716;17.158;2024-01-06T11:21:51;98151.03;;;6.81;83.57
77587;BME280;66744;49.716;17.158;2024-01-06T11:24:55;98138.47;;;6.84;82.84
77587;BME280;66744;49.716;17.158;2024-01-06T11:27:57;98138.81;;;6.86;83.38
77587;BME280;66744;49.716;17.158;2024-01-06T11:31:09;98142.75;;;6.85;83.10
77587;BME280;66744;49.716;17.158;2024-01-06T11:34:16;98140.78;;;6.85;83.16
77587;BME280;66744;49.716;17.158;2024-01-06T11:37:25;98131.28;;;6.90;83.46
77587;BME280;66744;49.716;17.158;2024-01-06T11:40:34;98130.78;;;6.95;82.33
77587;BME280;66744;49.716;17.158;2024-01-06T11:43:38;98128.38;;;6.97;82.47
77587;BME280;66744;49.716;17.158;2024-01-06T11:46:45;98127.50;;;7.00;82.12
77587;BME280;66744;49.716;17.158;2024-01-06T11:49:54;98118.53;;;6.99;82.28
77587;BME280;66744;49.716;17.158;2024-01-06T11:52:59;98113.50;;;6.98;83.00
77587;BME280;66744;49.716;17.158;2024-01-06T11:56:06;98113.50;;;6.98;82.55
77587;BME280;66744;49.716;17.158;2024-01-06T11:59:07;98109.66;;;6.95;82.81
77587;BME280;66744;49.716;17.158;2024-01-06T12:02:17;98108.47;;;6.96;82.48
77587;BME280;66744;49.716;17.158;2024-01-06T12:05:19;98108.03;;;6.98;82.98
77587;BME280;66744;49.716;17.158;2024-01-06T12:08:22;98102.47;;;7.01;82.32
77587;BME280;66744;49.716;17.158;2024-01-06T12:11:24;98100.41;;;7.05;82.50
77587;BME280;66744;49.716;17.158;2024-01-06T12:14:26;98104.25;;;7.08;81.96
77587;BME280;66744;49.716;17.158;2024-01-06T12:17:31;98105.34;;;7.10;82.45
77587;BME280;66744;49.716;17.158;2024-01-06T12:20:33;98104.16;;;7.11;82.39
77587;BME280;66744;49.716;17.158;2024-01-06T12:23:37;98102.59;;;7.10;82.27
77587;BME280;66744;49.716;17.158;2024-01-06T12:26:45;98106.34;;;7.16;82.56
77587;BME280;66744;49.716;17.158;2024-01-06T12:29:48;98116.41;;;7.19;81.82
77587;BME280;66744;49.716;17.158;2024-01-06T12:32:52;98109.41;;;7.18;81.49
77587;BME280;66744;49.716;17.158;2024-01-06T12:35:54;98110.94;;;7.19;82.28
77587;BME280;66744;49.716;17.158;2024-01-06T12:38:57;98114.75;;;7.22;82.25
77587;BME280;66744;49.716;17.158;2024-01-06T12:42:08;98113.34;;;7.17;82.05
77587;BME280;66744;49.716;17.158;2024-01-06T12:45:11;98114.75;;;7.22;82.12
77587;BME280;66744;49.716;17.158;2024-01-06T12:48:13;98108.09;;;7.23;82.25
77587;BME280;66744;49.716;17.158;2024-01-06T12:51:15;98108.56;;;7.21;81.76
77587;BME280;66744;49.716;17.158;2024-01-06T12:54:19;98102.63;;;7.23;82.49
77587;BME280;66744;49.716;17.158;2024-01-06T12:57:24;98108.09;;;7.23;82.31
77587;BME280;66744;49.716;17.158;2024-01-06T13:00:28;98109.28;;;7.22;82.22
77587;BME280;66744;49.716;17.158;2024-01-06T13:03:30;98103.72;;;7.25;81.69
77587;BME280;66744;49.716;17.158;2024-01-06T13:06:33;98109.19;;;7.25;82.08
77587;BME280;66744;49.716;17.158;2024-01-06T13:09:36;98110.50;;;7.21;81.79
77587;BME280;66744;49.716;17.158;2024-01-06T13:12:38;98109.41;;;7.18;81.75
77587;BME280;66744;49.716;17.158;2024-01-06T13:15:39;98110.59;;;7.17;81.90
77587;BME280;66744;49.716;17.158;2024-01-06T13:18:42;98105.91;;;7.18;81.80
77587;BME280;66744;49.716;17.158;2024-01-06T13:21:46;98115.97;;;7.21;82.50
77587;BME280;66744;49.716;17.158;2024-01-06T13:24:48;98117.94;;;7.20;82.71
77587;BME280;66744;49.716;17.158;2024-01-06T13:27:52;98119.91;;;7.20;81.57
77587;BME280;66744;49.716;17.158;2024-01-06T13:30:55;98126.44;;;7.22;81.73
77587;BME280;66744;49.716;17.158;2024-01-06T13:34:02;98129.19;;;7.22;82.44
77587;BME280;66744;49.716;17.158;2024-01-06T13:37:08;98131.91;;;7.22;81.46
77587;BME280;66744;49.716;17.158;2024-01-06T13:40:12;98123.31;;;7.24;82.27
77587;BME280;66744;49.716;17.158;2024-01-06T13:43:19;98133.00;;;7.25;82.71
77587;BME280;66744;49.716;17.158;2024-01-06T13:46:21;98133.34;;;7.27;82.62
77587;BME280;66744;49.716;17.158;2024-01-06T13:49:24;98136.50;;;7.25;82.05
77587;BME280;66744;49.716;17.158;2024-01-06T13:52:27;98146.25;;;7.26;82.21
77587;BME280;66744;49.716;17.158;2024-01-06T13:55:31;98147.66;;;7.31;82.18
77587;BME280;66744;49.716;17.158;2024-01-06T13:58:33;98143.84;;;7.28;80.98
77587;BME280;66744;49.716;17.158;2024-01-06T14:01:42;98146.16;;;7.30;80.60
77587;BME280;66744;49.716;17.158;2024-01-06T14:04:43;98139.56;;;7.27;81.26
77587;BME280;66744;49.716;17.158;2024-01-06T14:07:47;98143.84;;;7.28;81.57
77587;BME280;66744;49.716;17.158;2024-01-06T14:10:52;98148.53;;;7.28;79.75
77587;BME280;66744;49.716;17.158;2024-01-06T14:13:54;98157.06;;;7.30;79.38
77587;BME280;66744;49.716;17.158;2024-01-06T14:17:00;98153.22;;;7.27;79.41
77587;BME280;66744;49.716;17.158;2024-01-06T14:20:07;98154.84;;;7.25;78.33
77587;BME280;66744;49.716;17.158;2024-01-06T14:23:10;98156.50;;;7.22;78.00
77587;BME280;66744;49.716;17.158;2024-01-06T14:26:12;98154.22;;;7.21;77.25
77587;BME280;66744;49.716;17.158;2024-01-06T14:29:13;98161.63;;;7.20;75.71
77587;BME280;66744;49.716;17.158;2024-01-06T14:32:19;98158.47;;;7.22;76.79
77587;BME280;66744;49.716;17.158;2024-01-06T14:35:20;98170.59;;;7.21;76.53
77587;BME280;66744;49.716;17.158;2024-01-06T14:38:23;98170.59;;;7.21;77.23
77587;BME280;66744;49.716;17.158;2024-01-06T14:41:24;98173.34;;;7.21;76.13
77587;BME280;66744;49.716;17.158;2024-01-06T14:44:26;98164.78;;;7.19;76.54
77587;BME280;66744;49.716;17.158;2024-01-06T14:47:30;98166.00;;;7.18;76.26
77587;BME280;66744;49.716;17.158;2024-01-06T14:50:36;98174.53;;;7.20;76.49
77587;BME280;66744;49.716;17.158;2024-01-06T14:53:38;98174.97;;;7.18;74.91
77587;BME280;66744;49.716;17.158;2024-01-06T14:56:40;98174.97;;;7.18;76.64
77587;BME280;66744;49.716;17.158;2024-01-06T14:59:42;98184.78;;;7.16;75.95
77587;BME280;66744;49.716;17.158;2024-01-06T15:02:46;98176.16;;;7.17;75.54
77587;BME280;66744;49.716;17.158;2024-01-06T15:05:48;98184.69;;;7.19;75.23
77587;BME280;66744;49.716;17.158;2024-01-06T15:08:50;98186.63;;;7.19;75.42
77587;BME280;66744;49.716;17.158;2024-01-06T15:11:53;98188.50;;;7.22;75.64
77587;BME280;66744;49.716;17.158;2024-01-06T15:14:58;98190.59;;;7.18;75.01
77587;BME280;66744;49.716;17.158;2024-01-06T15:18:00;98187.94;;;7.14;75.09
77587;BME280;66744;49.716;17.158;2024-01-06T15:21:03;98189.13;;;7.13;76.01
77587;BME280;66744;49.716;17.158;2024-01-06T15:24:07;98187.50;;;7.16;75.77
77587;BME280;66744;49.716;17.158;2024-01-06T15:27:10;98189.03;;;7.17;76.27
77587;BME280;66744;49.716;17.158;2024-01-06T15:30:12;98192.53;;;7.17;76.19
77587;BME280;66744;49.716;17.158;2024-01-06T15:33:15;98190.91;;;7.20;75.90
77587;BME280;66744;49.716;17.158;2024-01-06T15:36:21;98180.94;;;7.13;76.19
77587;BME280;66744;49.716;17.158;2024-01-06T15:39:27;98187.72;;;7.09;75.52
77587;BME280;66744;49.716;17.158;2024-01-06T15:42:28;98186.50;;;7.10;75.68
77587;BME280;66744;49.716;17.158;2024-01-06T15:45:31;98197.88;;;7.08;74.86
77587;BME280;66744;49.716;17.158;2024-01-06T15:48:33;98193.28;;;7.05;74.62
77587;BME280;66744;49.716;17.158;2024-01-06T15:51:38;98197.03;;;6.95;75.06
77587;BME280;66744;49.716;17.158;2024-01-06T15:54:39;98191.50;;;6.99;76.34
77587;BME280;66744;49.716;17.158;2024-01-06T15:57:45;98193.44;;;6.98;75.41
77587;BME280;66744;49.716;17.158;2024-01-06T16:00:48;98191.94;;;6.97;75.34
77587;BME280;66744;49.716;17.158;2024-01-06T16:03:50;98199.44;;;6.93;76.45
77587;BME280;66744;49.716;17.158;2024-01-06T16:06:52;98200.22;;;6.94;75.27
77587;BME280;66744;49.716;17.158;2024-01-06T16:09:54;98200.22;;;6.94;75.40
77587;BME280;66744;49.716;17.158;2024-01-06T16:12:59;98196.38;;;6.91;75.11
77587;BME280;66744;49.716;17.158;2024-01-06T16:16:01;98204.56;;;6.91;75.25